Rhodes, Greece
Current Conditions -  °F | °C
As of 5:50 PM on Saturday 25 Oct 2014 (Local Time) from LGRP Reporting Station
Few Clouds Few Clouds  
Wind Chill: 22°   Ceiling: Unl
Heat Index: 22°   Visibility: 6mi
Dew Point: 14°   Wind: 9mph
Humidity: 60%   Direction: 250°WSW
Pressure: 29.88"   Gusts: NA
Location:  36.43°N, 28.22°E
Report Text: LGRP 251450Z 25008KT 9999 FEW018 22/14 Q1012 NOSIG
Loading
Personal Weather Stations






























Interactive Weather Map
Tropical Storm Tracking
New forecast layout! Learn more

10-Day Weather Forecast

Advertisements
Track Severe Weather on mobile